sensor_id;sensor_type;location;lat;lon;timestamp;pressure;altitude;pressure_sealevel;temperature;humidity
6349;BME280;3207;42.648;23.406;2023-09-18T00:50:01;100073.13;;;23.89;nan
6349;BME280;3207;42.648;23.406;2023-09-18T01:19:40;100078.81;;;23.30;nan
6349;BME280;3207;42.648;23.406;2023-09-18T01:24:38;100079.63;;;23.31;nan
6349;BME280;3207;42.648;23.406;2023-09-18T02:06:36;100055.56;;;22.82;nan
6349;BME280;3207;42.648;23.406;2023-09-18T02:13:56;100014.06;;;22.58;nan
6349;BME280;3207;42.648;23.406;2023-09-18T02:45:50;100061.16;;;22.51;nan
6349;BME280;3207;42.648;23.406;2023-09-18T02:55:45;100038.53;;;22.47;nan
6349;BME280;3207;42.648;23.406;2023-09-18T04:46:04;100001.97;;;21.75;nan
6349;BME280;3207;42.648;23.406;2023-09-18T06:00:02;99963.94;;;32.21;nan
6349;BME280;3207;42.648;23.406;2023-09-18T06:02:29;99966.41;;;33.14;nan
6349;BME280;3207;42.648;23.406;2023-09-18T06:04:56;99951.44;;;33.95;nan
6349;BME280;3207;42.648;23.406;2023-09-18T06:07:25;99977.69;;;34.72;nan
6349;BME280;3207;42.648;23.406;2023-09-18T06:09:53;99988.81;;;35.11;nan
6349;BME280;3207;42.648;23.406;2023-09-18T06:12:27;99978.78;;;35.27;nan
6349;BME280;3207;42.648;23.406;2023-09-18T06:17:24;99986.75;;;35.93;nan
6349;BME280;3207;42.648;23.406;2023-09-18T06:19:50;99999.84;;;36.45;nan
6349;BME280;3207;42.648;23.406;2023-09-18T06:22:17;99991.34;;;36.91;nan
6349;BME280;3207;42.648;23.406;2023-09-18T06:27:11;100027.28;;;37.85;nan
6349;BME280;3207;42.648;23.406;2023-09-18T06:32:05;99990.19;;;38.64;nan
6349;BME280;3207;42.648;23.406;2023-09-18T06:34:34;99992.78;;;38.55;nan
6349;BME280;3207;42.648;23.406;2023-09-18T06:37:01;99983.16;;;38.90;nan
6349;BME280;3207;42.648;23.406;2023-09-18T06:39:29;99977.91;;;38.94;nan
6349;BME280;3207;42.648;23.406;2023-09-18T06:44:23;99966.59;;;39.74;nan
6349;BME280;3207;42.648;23.406;2023-09-18T06:46:50;99970.16;;;39.47;nan
6349;BME280;3207;42.648;23.406;2023-09-18T06:49:18;99978.88;;;39.49;nan
6349;BME280;3207;42.648;23.406;2023-09-18T06:51:46;99997.66;;;39.09;nan
6349;BME280;3207;42.648;23.406;2023-09-18T06:54:13;99997.69;;;39.37;nan
6349;BME280;3207;42.648;23.406;2023-09-18T06:56:40;100022.03;;;39.52;nan
6349;BME280;3207;42.648;23.406;2023-09-18T06:59:09;99999.16;;;39.48;nan
6349;BME280;3207;42.648;23.406;2023-09-18T07:01:37;100002.00;;;39.57;nan
6349;BME280;3207;42.648;23.406;2023-09-18T07:04:05;99989.94;;;39.11;nan
6349;BME280;3207;42.648;23.406;2023-09-18T07:06:31;99997.94;;;39.40;nan
6349;BME280;3207;42.648;23.406;2023-09-18T07:09:00;100004.84;;;39.51;nan
6349;BME280;3207;42.648;23.406;2023-09-18T07:11:29;100005.84;;;39.56;nan
6349;BME280;3207;42.648;23.406;2023-09-18T07:13:55;100008.88;;;39.54;nan
6349;BME280;3207;42.648;23.406;2023-09-18T07:16:22;100010.50;;;39.82;nan
6349;BME280;3207;42.648;23.406;2023-09-18T07:18:49;100007.97;;;39.12;nan
6349;BME280;3207;42.648;23.406;2023-09-18T07:21:16;100006.22;;;39.03;nan
6349;BME280;3207;42.648;23.406;2023-09-18T07:23:43;100003.44;;;39.08;nan
6349;BME280;3207;42.648;23.406;2023-09-18T07:26:12;100025.44;;;39.16;nan
6349;BME280;3207;42.648;23.406;2023-09-18T07:28:39;100019.97;;;39.16;nan
6349;BME280;3207;42.648;23.406;2023-09-18T07:31:08;100026.72;;;38.87;nan
6349;BME280;3207;42.648;23.406;2023-09-18T07:33:37;100025.59;;;38.55;nan
6349;BME280;3207;42.648;23.406;2023-09-18T07:36:04;100039.94;;;38.23;nan
6349;BME280;3207;42.648;23.406;2023-09-18T07:38:31;100051.09;;;38.03;nan
6349;BME280;3207;42.648;23.406;2023-09-18T07:40:58;100065.25;;;38.10;nan
6349;BME280;3207;42.648;23.406;2023-09-18T07:43:26;100049.91;;;38.14;nan
6349;BME280;3207;42.648;23.406;2023-09-18T07:45:53;100062.75;;;38.14;nan
6349;BME280;3207;42.648;23.406;2023-09-18T07:48:22;100057.31;;;38.32;nan
6349;BME280;3207;42.648;23.406;2023-09-18T07:50:49;100051.56;;;38.71;nan
6349;BME280;3207;42.648;23.406;2023-09-18T07:53:16;100055.91;;;38.91;nan
6349;BME280;3207;42.648;23.406;2023-09-18T07:55:43;100059.91;;;39.31;nan
6349;BME280;3207;42.648;23.406;2023-09-18T07:58:09;100051.75;;;36.74;nan
6349;BME280;3207;42.648;23.406;2023-09-18T08:00:38;100030.38;;;34.61;nan
6349;BME280;3207;42.648;23.406;2023-09-18T08:03:05;100035.88;;;33.57;nan
6349;BME280;3207;42.648;23.406;2023-09-18T08:07:58;100041.88;;;33.27;nan
6349;BME280;3207;42.648;23.406;2023-09-18T08:10:26;100005.47;;;33.18;nan
6349;BME280;3207;42.648;23.406;2023-09-18T08:12:53;100004.09;;;33.15;nan
6349;BME280;3207;42.648;23.406;2023-09-18T08:15:20;100016.88;;;32.61;nan
6349;BME280;3207;42.648;23.406;2023-09-18T08:20:15;100018.78;;;32.65;nan
6349;BME280;3207;42.648;23.406;2023-09-18T08:22:43;100023.88;;;33.16;nan
6349;BME280;3207;42.648;23.406;2023-09-18T08:25:10;100014.25;;;33.30;nan
6349;BME280;3207;42.648;23.406;2023-09-18T08:30:07;100019.34;;;33.63;nan
6349;BME280;3207;42.648;23.406;2023-09-18T08:32:35;100028.81;;;33.56;nan
6349;BME280;3207;42.648;23.406;2023-09-18T08:35:04;100023.56;;;33.86;nan
6349;BME280;3207;42.648;23.406;2023-09-18T08:37:31;100005.22;;;33.61;nan
6349;BME280;3207;42.648;23.406;2023-09-18T08:42:28;100005.94;;;34.86;nan
6349;BME280;3207;42.648;23.406;2023-09-18T08:47:25;100000.53;;;34.81;nan
6349;BME280;3207;42.648;23.406;2023-09-18T08:49:54;100017.91;;;35.21;nan
6349;BME280;3207;42.648;23.406;2023-09-18T08:52:24;99997.19;;;34.54;nan
6349;BME280;3207;42.648;23.406;2023-09-18T08:54:53;100014.94;;;33.52;nan
6349;BME280;3207;42.648;23.406;2023-09-18T08:57:23;99996.78;;;33.16;nan
6349;BME280;3207;42.648;23.406;2023-09-18T08:59:52;99999.13;;;33.02;nan
6349;BME280;3207;42.648;23.406;2023-09-18T09:02:20;100006.19;;;33.82;nan
6349;BME280;3207;42.648;23.406;2023-09-18T09:04:47;99996.91;;;33.26;nan
6349;BME280;3207;42.648;23.406;2023-09-18T09:07:14;99991.22;;;33.32;nan
6349;BME280;3207;42.648;23.406;2023-09-18T09:09:43;99988.94;;;34.13;nan
6349;BME280;3207;42.648;23.406;2023-09-18T09:12:10;99991.84;;;35.05;nan
6349;BME280;3207;42.648;23.406;2023-09-18T09:14:37;99986.31;;;35.55;nan
6349;BME280;3207;42.648;23.406;2023-09-18T09:17:04;99996.00;;;36.02;nan
6349;BME280;3207;42.648;23.406;2023-09-18T09:19:32;100006.09;;;36.46;nan
6349;BME280;3207;42.648;23.406;2023-09-18T09:22:02;100003.63;;;36.54;nan
6349;BME280;3207;42.648;23.406;2023-09-18T09:27:04;99993.44;;;36.65;nan
6349;BME280;3207;42.648;23.406;2023-09-18T09:29:31;99993.97;;;36.72;nan
6349;BME280;3207;42.648;23.406;2023-09-18T09:32:12;99981.38;;;37.39;nan
6349;BME280;3207;42.648;23.406;2023-09-18T09:34:41;99970.81;;;37.32;nan
6349;BME280;3207;42.648;23.406;2023-09-18T09:37:08;99967.66;;;37.20;nan
6349;BME280;3207;42.648;23.406;2023-09-18T09:39:47;99966.50;;;37.26;nan
6349;BME280;3207;42.648;23.406;2023-09-18T09:42:18;99977.53;;;37.40;nan
6349;BME280;3207;42.648;23.406;2023-09-18T09:45:00;99974.59;;;38.45;nan
6349;BME280;3207;42.648;23.406;2023-09-18T09:47:32;99970.81;;;38.41;nan
6349;BME280;3207;42.648;23.406;2023-09-18T09:50:06;99979.47;;;38.30;nan
6349;BME280;3207;42.648;23.406;2023-09-18T09:52:33;99969.16;;;38.03;nan
6349;BME280;3207;42.648;23.406;2023-09-18T09:55:01;99956.22;;;37.71;nan
6349;BME280;3207;42.648;23.406;2023-09-18T09:57:30;99968.63;;;37.58;nan
6349;BME280;3207;42.648;23.406;2023-09-18T10:00:03;99955.44;;;37.89;nan
6349;BME280;3207;42.648;23.406;2023-09-18T10:02:47;99949.06;;;38.55;nan
6349;BME280;3207;42.648;23.406;2023-09-18T10:05:16;99931.72;;;38.92;nan
6349;BME280;3207;42.648;23.406;2023-09-18T10:07:44;99938.19;;;39.29;nan
6349;BME280;3207;42.648;23.406;2023-09-18T10:10:12;99927.94;;;38.23;nan
6349;BME280;3207;42.648;23.406;2023-09-18T10:12:40;99933.03;;;38.81;nan
6349;BME280;3207;42.648;23.406;2023-09-18T10:15:08;99927.47;;;38.86;nan
6349;BME280;3207;42.648;23.406;2023-09-18T10:17:42;99931.06;;;38.68;nan
6349;BME280;3207;42.648;23.406;2023-09-18T10:20:12;99922.72;;;38.92;nan
6349;BME280;3207;42.648;23.406;2023-09-18T10:22:48;99915.53;;;38.31;nan
6349;BME280;3207;42.648;23.406;2023-09-18T10:25:18;99917.38;;;38.35;nan
6349;BME280;3207;42.648;23.406;2023-09-18T10:27:49;99924.63;;;38.91;nan
6349;BME280;3207;42.648;23.406;2023-09-18T10:30:18;99919.44;;;38.76;nan
6349;BME280;3207;42.648;23.406;2023-09-18T10:32:48;99933.84;;;39.55;nan
6349;BME280;3207;42.648;23.406;2023-09-18T10:35:16;99929.75;;;39.11;nan
6349;BME280;3207;42.648;23.406;2023-09-18T10:37:46;99917.59;;;40.36;nan
6349;BME280;3207;42.648;23.406;2023-09-18T10:40:13;99907.94;;;40.02;nan
6349;BME280;3207;42.648;23.406;2023-09-18T10:42:41;99923.78;;;40.28;nan
6349;BME280;3207;42.648;23.406;2023-09-18T10:45:10;99908.59;;;40.66;nan
6349;BME280;3207;42.648;23.406;2023-09-18T10:47:38;99890.25;;;39.59;nan
6349;BME280;3207;42.648;23.406;2023-09-18T10:50:08;99907.41;;;38.77;nan
6349;BME280;3207;42.648;23.406;2023-09-18T10:52:35;99920.06;;;37.55;nan
6349;BME280;3207;42.648;23.406;2023-09-18T10:55:03;99888.91;;;38.36;nan
6349;BME280;3207;42.648;23.406;2023-09-18T10:57:33;99878.72;;;38.42;nan
6349;BME280;3207;42.648;23.406;2023-09-18T11:00:02;99893.03;;;38.85;nan
6349;BME280;3207;42.648;23.406;2023-09-18T11:02:40;99883.56;;;39.24;nan
6349;BME280;3207;42.648;23.406;2023-09-18T11:05:07;99872.31;;;39.39;nan
6349;BME280;3207;42.648;23.406;2023-09-18T11:07:34;99819.38;;;38.89;nan
6349;BME280;3207;42.648;23.406;2023-09-18T11:10:25;99898.47;;;38.20;nan
6349;BME280;3207;42.648;23.406;2023-09-18T11:12:52;99870.94;;;37.55;nan
6349;BME280;3207;42.648;23.406;2023-09-18T11:15:31;99865.25;;;36.46;nan
6349;BME280;3207;42.648;23.406;2023-09-18T11:18:01;99861.63;;;35.73;nan
6349;BME280;3207;42.648;23.406;2023-09-18T11:20:29;99858.34;;;35.27;nan
6349;BME280;3207;42.648;23.406;2023-09-18T11:22:58;99861.13;;;35.76;nan
6349;BME280;3207;42.648;23.406;2023-09-18T11:25:30;99870.19;;;36.05;nan
6349;BME280;3207;42.648;23.406;2023-09-18T11:28:01;99854.34;;;36.46;nan
6349;BME280;3207;42.648;23.406;2023-09-18T11:30:29;99878.53;;;37.16;nan
6349;BME280;3207;42.648;23.406;2023-09-18T11:32:56;99865.88;;;38.42;nan
6349;BME280;3207;42.648;23.406;2023-09-18T11:35:25;99864.19;;;39.34;nan
6349;BME280;3207;42.648;23.406;2023-09-18T11:38:10;99862.16;;;39.53;nan
6349;BME280;3207;42.648;23.406;2023-09-18T11:40:38;99852.16;;;39.07;nan
6349;BME280;3207;42.648;23.406;2023-09-18T11:43:20;99847.97;;;38.50;nan
6349;BME280;3207;42.648;23.406;2023-09-18T11:45:51;99864.72;;;37.73;nan
6349;BME280;3207;42.648;23.406;2023-09-18T11:48:19;99894.81;;;36.34;nan
6349;BME280;3207;42.648;23.406;2023-09-18T11:50:48;99853.66;;;35.37;nan
6349;BME280;3207;42.648;23.406;2023-09-18T11:53:16;99870.38;;;34.70;nan
6349;BME280;3207;42.648;23.406;2023-09-18T11:55:44;99834.78;;;34.71;nan
6349;BME280;3207;42.648;23.406;2023-09-18T11:58:11;99827.19;;;34.63;nan
6349;BME280;3207;42.648;23.406;2023-09-18T12:00:38;99844.28;;;34.59;nan
6349;BME280;3207;42.648;23.406;2023-09-18T12:03:16;99832.38;;;34.39;nan
6349;BME280;3207;42.648;23.406;2023-09-18T12:05:54;99867.94;;;34.28;nan
6349;BME280;3207;42.648;23.406;2023-09-18T12:08:22;99850.38;;;33.63;nan
6349;BME280;3207;42.648;23.406;2023-09-18T12:10:51;99843.25;;;33.41;nan
6349;BME280;3207;42.648;23.406;2023-09-18T12:13:19;99834.59;;;33.50;nan
6349;BME280;3207;42.648;23.406;2023-09-18T12:15:46;99826.19;;;33.41;nan
6349;BME280;3207;42.648;23.406;2023-09-18T12:18:14;99826.78;;;33.01;nan
6349;BME280;3207;42.648;23.406;2023-09-18T12:20:46;99830.69;;;32.73;nan
6349;BME280;3207;42.648;23.406;2023-09-18T12:23:14;99834.91;;;32.59;nan
6349;BME280;3207;42.648;23.406;2023-09-18T12:25:43;99821.28;;;32.17;nan
6349;BME280;3207;42.648;23.406;2023-09-18T12:28:13;99819.34;;;31.85;nan
6349;BME280;3207;42.648;23.406;2023-09-18T12:30:41;99804.56;;;31.66;nan
6349;BME280;3207;42.648;23.406;2023-09-18T12:33:07;99809.84;;;31.56;nan
6349;BME280;3207;42.648;23.406;2023-09-18T12:35:34;99782.53;;;31.57;nan
6349;BME280;3207;42.648;23.406;2023-09-18T12:38:15;99775.75;;;31.55;nan
6349;BME280;3207;42.648;23.406;2023-09-18T12:40:43;99762.16;;;31.45;nan
6349;BME280;3207;42.648;23.406;2023-09-18T12:43:12;99767.03;;;31.26;nan
6349;BME280;3207;42.648;23.406;2023-09-18T12:45:42;99772.88;;;31.40;nan
6349;BME280;3207;42.648;23.406;2023-09-18T12:48:12;99779.44;;;31.44;nan
6349;BME280;3207;42.648;23.406;2023-09-18T12:50:39;99786.34;;;31.35;nan
6349;BME280;3207;42.648;23.406;2023-09-18T12:55:48;99783.66;;;31.13;nan
6349;BME280;3207;42.648;23.406;2023-09-18T12:58:18;99776.09;;;31.37;nan
6349;BME280;3207;42.648;23.406;2023-09-18T13:00:46;99761.63;;;31.48;nan
6349;BME280;3207;42.648;23.406;2023-09-18T13:03:15;99756.75;;;31.45;nan
6349;BME280;3207;42.648;23.406;2023-09-18T13:05:42;99760.66;;;31.59;nan
6349;BME280;3207;42.648;23.406;2023-09-18T13:13:16;99751.81;;;31.63;nan
6349;BME280;3207;42.648;23.406;2023-09-18T13:18:11;99760.22;;;31.18;nan
6349;BME280;3207;42.648;23.406;2023-09-18T13:20:38;99753.41;;;31.38;nan
6349;BME280;3207;42.648;23.406;2023-09-18T13:23:07;99763.81;;;31.24;nan
6349;BME280;3207;42.648;23.406;2023-09-18T13:25:34;99762.47;;;31.26;nan
6349;BME280;3207;42.648;23.406;2023-09-18T13:28:06;99754.28;;;31.65;nan
6349;BME280;3207;42.648;23.406;2023-09-18T13:30:34;99769.38;;;31.93;nan
6349;BME280;3207;42.648;23.406;2023-09-18T13:33:05;99746.25;;;32.07;nan
6349;BME280;3207;42.648;23.406;2023-09-18T13:35:33;99738.41;;;32.06;nan
6349;BME280;3207;42.648;23.406;2023-09-18T13:38:00;99733.50;;;32.03;nan
6349;BME280;3207;42.648;23.406;2023-09-18T13:45:22;99742.91;;;31.68;nan
6349;BME280;3207;42.648;23.406;2023-09-18T13:47:50;99723.25;;;31.46;nan
6349;BME280;3207;42.648;23.406;2023-09-18T13:50:17;99723.03;;;31.52;nan
6349;BME280;3207;42.648;23.406;2023-09-18T13:52:44;99731.50;;;31.34;nan
6349;BME280;3207;42.648;23.406;2023-09-18T13:55:10;99723.06;;;31.31;nan
6349;BME280;3207;42.648;23.406;2023-09-18T14:00:06;99707.22;;;31.12;nan
6349;BME280;3207;42.648;23.406;2023-09-18T14:02:37;99710.34;;;31.04;nan
6349;BME280;3207;42.648;23.406;2023-09-18T14:05:05;99712.72;;;30.79;nan
6349;BME280;3207;42.648;23.406;2023-09-18T14:09:58;99709.94;;;30.74;nan
6349;BME280;3207;42.648;23.406;2023-09-18T14:12:29;99710.50;;;30.54;nan
6349;BME280;3207;42.648;23.406;2023-09-18T14:17:25;99704.94;;;30.61;nan
6349;BME280;3207;42.648;23.406;2023-09-18T14:19:53;99724.69;;;30.66;nan
6349;BME280;3207;42.648;23.406;2023-09-18T14:22:20;99716.38;;;30.51;nan
6349;BME280;3207;42.648;23.406;2023-09-18T14:24:47;99716.88;;;30.48;nan
6349;BME280;3207;42.648;23.406;2023-09-18T14:27:14;99728.94;;;30.62;nan
6349;BME280;3207;42.648;23.406;2023-09-18T14:29:41;99718.81;;;30.69;nan
6349;BME280;3207;42.648;23.406;2023-09-18T14:32:08;99719.63;;;30.70;nan
6349;BME280;3207;42.648;23.406;2023-09-18T14:34:35;99697.91;;;30.60;nan
6349;BME280;3207;42.648;23.406;2023-09-18T14:37:03;99658.88;;;30.12;nan
6349;BME280;3207;42.648;23.406;2023-09-18T14:39:31;99676.69;;;30.13;nan
6349;BME280;3207;42.648;23.406;2023-09-18T14:41:58;99658.06;;;29.95;nan
6349;BME280;3207;42.648;23.406;2023-09-18T14:44:26;99679.63;;;29.95;nan
6349;BME280;3207;42.648;23.406;2023-09-18T14:46:53;99654.34;;;29.96;nan
6349;BME280;3207;42.648;23.406;2023-09-18T14:49:20;99647.59;;;29.81;nan
6349;BME280;3207;42.648;23.406;2023-09-18T14:51:47;99651.03;;;29.60;nan
6349;BME280;3207;42.648;23.406;2023-09-18T14:54:16;99657.47;;;29.59;nan
6349;BME280;3207;42.648;23.406;2023-09-18T14:56:43;99658.88;;;29.62;nan
6349;BME280;3207;42.648;23.406;2023-09-18T14:59:11;99677.16;;;29.43;nan
6349;BME280;3207;42.648;23.406;2023-09-18T15:09:01;99655.91;;;29.46;nan
6349;BME280;3207;42.648;23.406;2023-09-18T15:11:30;99640.41;;;29.37;nan
6349;BME280;3207;42.648;23.406;2023-09-18T15:21:17;99641.28;;;29.14;nan
6349;BME280;3207;42.648;23.406;2023-09-18T15:26:11;99634.13;;;29.03;nan
6349;BME280;3207;42.648;23.406;2023-09-18T15:31:06;99635.09;;;29.13;nan
6349;BME280;3207;42.648;23.406;2023-09-18T15:38:26;99633.78;;;28.99;nan
6349;BME280;3207;42.648;23.406;2023-09-18T15:40:53;99630.03;;;29.00;nan
6349;BME280;3207;42.648;23.406;2023-09-18T15:45:49;99615.78;;;28.88;nan
6349;BME280;3207;42.648;23.406;2023-09-18T15:48:15;99610.41;;;28.88;nan
6349;BME280;3207;42.648;23.406;2023-09-18T15:50:43;99617.84;;;28.98;nan
6349;BME280;3207;42.648;23.406;2023-09-18T15:53:09;99608.84;;;29.21;nan
6349;BME280;3207;42.648;23.406;2023-09-18T15:55:36;99613.63;;;29.47;nan
6349;BME280;3207;42.648;23.406;2023-09-18T15:58:03;99597.81;;;29.51;nan
6349;BME280;3207;42.648;23.406;2023-09-18T16:00:30;99606.28;;;29.42;nan
6349;BME280;3207;42.648;23.406;2023-09-18T16:02:58;99594.00;;;29.35;nan
6349;BME280;3207;42.648;23.406;2023-09-18T16:05:25;99604.25;;;29.49;nan
6349;BME280;3207;42.648;23.406;2023-09-18T16:07:52;99613.13;;;29.83;nan
6349;BME280;3207;42.648;23.406;2023-09-18T16:10:24;99608.22;;;29.80;nan
6349;BME280;3207;42.648;23.406;2023-09-18T16:12:51;99608.97;;;29.93;nan
6349;BME280;3207;42.648;23.406;2023-09-18T16:15:17;99617.88;;;29.93;nan
6349;BME280;3207;42.648;23.406;2023-09-18T16:17:45;99619.00;;;29.80;nan
6349;BME280;3207;42.648;23.406;2023-09-18T16:22:40;99610.66;;;30.15;nan
6349;BME280;3207;42.648;23.406;2023-09-18T16:25:12;99616.53;;;30.29;nan
6349;BME280;3207;42.648;23.406;2023-09-18T16:27:39;99612.31;;;30.16;nan
6349;BME280;3207;42.648;23.406;2023-09-18T16:30:09;99608.41;;;30.07;nan
6349;BME280;3207;42.648;23.406;2023-09-18T16:32:37;99607.44;;;29.97;nan
6349;BME280;3207;42.648;23.406;2023-09-18T16:35:05;99614.59;;;29.91;nan
6349;BME280;3207;42.648;23.406;2023-09-18T16:37:33;99602.72;;;29.54;nan
6349;BME280;3207;42.648;23.406;2023-09-18T16:40:00;99611.03;;;29.69;nan
6349;BME280;3207;42.648;23.406;2023-09-18T16:42:28;99614.28;;;29.71;nan
6349;BME280;3207;42.648;23.406;2023-09-18T16:44:55;99603.16;;;29.67;nan
6349;BME280;3207;42.648;23.406;2023-09-18T16:47:25;99607.09;;;29.60;nan
6349;BME280;3207;42.648;23.406;2023-09-18T16:49:52;99599.78;;;29.55;nan
6349;BME280;3207;42.648;23.406;2023-09-18T16:57:14;99620.94;;;29.35;nan
6349;BME280;3207;42.648;23.406;2023-09-18T16:59:41;99618.16;;;29.30;nan
6349;BME280;3207;42.648;23.406;2023-09-18T17:12:01;99600.00;;;29.08;nan
6349;BME280;3207;42.648;23.406;2023-09-18T17:14:28;99602.06;;;29.01;nan
6349;BME280;3207;42.648;23.406;2023-09-18T18:05:53;99634.16;;;28.16;nan
6349;BME280;3207;42.648;23.406;2023-09-18T19:29:33;99635.88;;;26.74;nan
6349;BME280;3207;42.648;23.406;2023-09-18T22:11:40;99558.41;;;26.66;nan
6349;BME280;3207;42.648;23.406;2023-09-18T22:33:50;99545.78;;;26.55;nan
